createdAt,value
2023-10-06T00:00:10.787Z,79.76
2023-10-06T00:01:22.731Z,80.48
2023-10-06T00:01:56.952Z,80.94
2023-10-06T00:02:32.142Z,81.31
2023-10-06T00:03:07.391Z,81.25
2023-10-06T00:03:42.958Z,81.38
2023-10-06T00:04:17.682Z,81.24
2023-10-06T00:05:03.727Z,81.15
2023-10-06T00:05:37.645Z,81.19
2023-10-06T00:06:15.444Z,81.01
2023-10-06T00:06:50.557Z,81.11
2023-10-06T00:07:26.049Z,81.15
2023-10-06T00:08:00.523Z,81.19
2023-10-06T00:08:52.903Z,81.48
2023-10-06T00:09:29.977Z,81.62
2023-10-06T00:10:05.206Z,81.96
2023-10-06T00:10:46.239Z,81.94
2023-10-06T00:11:33.266Z,82.05
2023-10-06T00:12:28.192Z,82.27
2023-10-06T00:13:05.418Z,82.13
2023-10-06T00:13:39.419Z,82.04
2023-10-06T00:14:33.105Z,82.05
2023-10-06T00:15:10.921Z,82.07
2023-10-06T00:15:45.479Z,81.95
2023-10-06T00:16:34.897Z,82.03
2023-10-06T00:17:13.204Z,82.46
2023-10-06T00:17:50.753Z,82.49
2023-10-06T00:18:24.997Z,82.44
2023-10-06T00:19:03.059Z,83.35
2023-10-06T00:20:22.824Z,83.07
2023-10-06T00:21:08.512Z,83.20
2023-10-06T00:21:47.255Z,83.34
2023-10-06T00:22:20.920Z,83.24
2023-10-06T00:23:03.952Z,83.26
2023-10-06T00:23:46.359Z,83.21
2023-10-06T00:24:27.607Z,83.28
2023-10-06T00:25:03.751Z,83.04
2023-10-06T00:25:38.359Z,83.07
2023-10-06T00:26:20.515Z,83.16
2023-10-06T00:27:33.356Z,83.14
2023-10-06T00:28:17.006Z,83.05
2023-10-06T00:28:51.495Z,83.10
2023-10-06T00:29:25.876Z,82.91
2023-10-06T00:30:00.342Z,82.91
2023-10-06T00:30:34.209Z,82.73
2023-10-06T00:31:23.148Z,82.54
2023-10-06T00:32:20.538Z,82.53
2023-10-06T00:32:56.473Z,82.60
2023-10-06T00:33:38.914Z,82.61
2023-10-06T00:34:13.324Z,82.55
2023-10-06T00:34:47.228Z,82.36
2023-10-06T00:35:33.319Z,82.35
2023-10-06T00:36:17.980Z,82.17
2023-10-06T00:36:53.434Z,82.22
2023-10-06T00:37:27.370Z,82.14
2023-10-06T00:38:12.142Z,82.09
2023-10-06T00:39:31.343Z,82.03
2023-10-06T00:40:12.372Z,82.09
2023-10-06T00:40:52.947Z,82.10
2023-10-06T00:41:29.903Z,82.25
2023-10-06T00:42:06.271Z,82.31
2023-10-06T00:43:17.429Z,82.38
2023-10-06T00:43:52.769Z,82.28
2023-10-06T00:44:27.580Z,82.30
2023-10-06T00:45:02.858Z,82.43
2023-10-06T00:45:40.828Z,82.45
2023-10-06T00:46:49.252Z,81.85
2023-10-06T00:47:23.882Z,81.90
2023-10-06T00:47:58.505Z,81.73
2023-10-06T00:48:34.061Z,81.55
2023-10-06T00:49:09.381Z,81.74
2023-10-06T00:49:44.933Z,81.88
2023-10-06T00:50:34.363Z,81.92
2023-10-06T00:51:23.634Z,82.06
2023-10-06T00:52:00.488Z,82.05
2023-10-06T00:52:35.458Z,82.00
2023-10-06T00:53:12.184Z,82.02
2023-10-06T00:54:17.378Z,82.23
2023-10-06T00:54:51.578Z,82.57
2023-10-06T00:55:27.424Z,82.59
2023-10-06T00:56:12.278Z,82.71
2023-10-06T00:56:46.624Z,82.87
2023-10-06T00:57:21.763Z,82.91
2023-10-06T00:58:06.033Z,83.10
2023-10-06T00:58:42.727Z,83.06
2023-10-06T00:59:18.450Z,82.82
2023-10-06T00:59:54.078Z,82.60
2023-10-06T01:00:30.959Z,82.43
2023-10-06T01:01:09.130Z,82.76
2023-10-06T01:01:51.800Z,82.72
2023-10-06T01:02:26.373Z,82.93
2023-10-06T01:03:00.339Z,82.90
2023-10-06T01:03:40.478Z,83.15
2023-10-06T01:04:18.123Z,83.15
2023-10-06T01:04:54.389Z,83.04
2023-10-06T01:05:36.230Z,82.91
2023-10-06T01:06:19.110Z,83.04
2023-10-06T01:06:56.189Z,83.36
2023-10-06T01:07:29.976Z,83.39
2023-10-06T01:08:07.107Z,83.57
2023-10-06T01:08:49.859Z,83.74
2023-10-06T01:09:37.346Z,83.75
2023-10-06T01:10:18.771Z,83.59
2023-10-06T01:11:08.191Z,83.69
2023-10-06T01:11:51.963Z,83.64
2023-10-06T01:12:26.587Z,83.80
2023-10-06T01:13:15.812Z,83.82
2023-10-06T01:13:57.704Z,83.75
2023-10-06T01:14:35.652Z,83.60
2023-10-06T01:15:20.468Z,83.58
2023-10-06T01:15:57.874Z,83.44
2023-10-06T01:17:18.576Z,83.72
2023-10-06T01:17:56.412Z,83.93
2023-10-06T01:18:36.571Z,83.89
2023-10-06T01:19:18.561Z,83.73
2023-10-06T01:19:54.845Z,83.80
2023-10-06T01:20:43.138Z,83.72
2023-10-06T01:21:26.670Z,83.73
2023-10-06T01:22:15.253Z,83.82
2023-10-06T01:22:57.898Z,83.65
2023-10-06T01:23:35.227Z,83.92
2023-10-06T01:24:27.758Z,84.04
2023-10-06T01:25:06.235Z,83.97
2023-10-06T01:25:41.211Z,84.05
2023-10-06T01:26:14.921Z,83.96
2023-10-06T01:26:50.602Z,84.16
2023-10-06T01:28:04.997Z,84.01
2023-10-06T01:28:39.369Z,83.80
2023-10-06T01:29:15.039Z,83.71
2023-10-06T01:29:53.315Z,83.62
2023-10-06T01:30:27.723Z,83.45
2023-10-06T01:31:41.669Z,83.59
2023-10-06T01:32:17.450Z,83.52
2023-10-06T01:32:53.190Z,83.19
2023-10-06T01:33:26.813Z,83.28
2023-10-06T01:34:01.044Z,83.13
2023-10-06T01:34:40.921Z,83.15
2023-10-06T01:35:35.147Z,83.27
2023-10-06T01:36:15.435Z,83.29
2023-10-06T01:36:55.186Z,83.24
2023-10-06T01:37:29.803Z,83.16
2023-10-06T01:38:07.115Z,83.17
2023-10-06T01:39:19.861Z,83.20
2023-10-06T01:39:54.104Z,83.08
2023-10-06T01:40:29.086Z,83.14
2023-10-06T01:41:04.264Z,83.34
2023-10-06T01:41:38.825Z,83.37
2023-10-06T01:42:49.988Z,82.99
2023-10-06T01:43:26.956Z,82.90
2023-10-06T01:44:01.219Z,82.85
2023-10-06T01:44:38.852Z,83.10
2023-10-06T01:45:16.379Z,83.36
2023-10-06T01:45:53.489Z,83.52
2023-10-06T01:46:37.740Z,83.52
2023-10-06T01:47:13.288Z,83.58
2023-10-06T01:47:48.081Z,83.73
2023-10-06T01:48:22.280Z,83.90
2023-10-06T01:48:56.434Z,84.29
2023-10-06T01:49:30.430Z,84.17
2023-10-06T01:50:16.004Z,84.16
2023-10-06T01:50:51.648Z,84.14
2023-10-06T01:51:25.785Z,83.96
2023-10-06T01:52:08.852Z,84.06
2023-10-06T01:52:43.900Z,83.83
2023-10-06T01:53:20.566Z,83.61
2023-10-06T01:54:04.607Z,83.56
2023-10-06T01:54:38.416Z,83.46
2023-10-06T01:55:23.077Z,83.30
2023-10-06T01:55:57.556Z,83.36
2023-10-06T01:56:32.643Z,83.22
2023-10-06T01:57:12.776Z,83.25
2023-10-06T01:57:55.723Z,83.36
2023-10-06T01:58:30.198Z,83.20
2023-10-06T01:59:06.893Z,83.14
2023-10-06T01:59:41.144Z,83.14
2023-10-06T02:00:16.911Z,83.20
2023-10-06T02:13:07.566Z,82.04
2023-10-06T02:13:41.408Z,81.64
2023-10-06T02:14:19.357Z,81.77
2023-10-06T02:14:53.563Z,81.75
2023-10-06T02:15:58.302Z,81.60
2023-10-06T02:16:32.354Z,81.57
2023-10-06T02:17:10.479Z,81.55
2023-10-06T02:17:44.729Z,81.63
2023-10-06T02:18:18.902Z,81.53
2023-10-06T02:19:30.492Z,81.16
2023-10-06T02:20:13.752Z,80.68
2023-10-06T02:20:47.894Z,80.45
2023-10-06T02:21:26.005Z,80.53
2023-10-06T02:21:59.811Z,80.42
2023-10-06T02:22:33.611Z,80.39
2023-10-06T02:23:19.640Z,80.28
2023-10-06T02:23:54.273Z,80.23
2023-10-06T02:24:28.230Z,80.42
2023-10-06T02:25:14.457Z,80.55
2023-10-06T02:25:48.267Z,80.58
2023-10-06T02:26:22.140Z,80.61
2023-10-06T02:27:08.167Z,80.57
2023-10-06T02:27:48.951Z,80.66
2023-10-06T02:28:22.549Z,80.68
2023-10-06T02:28:57.538Z,80.65
2023-10-06T02:29:32.753Z,80.62
2023-10-06T02:30:11.878Z,80.53
2023-10-06T02:30:57.013Z,80.52
2023-10-06T02:31:31.083Z,80.42
2023-10-06T02:32:09.352Z,80.42
2023-10-06T02:32:47.208Z,80.29
2023-10-06T02:33:21.558Z,80.22
2023-10-06T02:34:37.690Z,80.07
2023-10-06T02:35:13.924Z,80.03
2023-10-06T02:35:48.399Z,79.78
2023-10-06T02:36:26.279Z,79.47
2023-10-06T02:37:03.366Z,79.60
2023-10-06T02:38:10.352Z,79.98
2023-10-06T02:38:48.301Z,80.06
2023-10-06T02:39:22.599Z,80.20
2023-10-06T02:39:56.848Z,80.21
2023-10-06T02:40:39.355Z,80.34
2023-10-06T02:41:13.633Z,80.53
2023-10-06T02:41:59.259Z,80.62
2023-10-06T02:42:35.563Z,80.36
2023-10-06T02:43:11.208Z,80.45
2023-10-06T02:43:45.252Z,80.62
2023-10-06T02:44:24.457Z,80.55
2023-10-06T02:45:42.146Z,81.03
2023-10-06T02:46:17.297Z,81.11
2023-10-06T02:46:57.230Z,81.20
2023-10-06T02:47:30.925Z,81.40
2023-10-06T02:48:16.638Z,81.53
2023-10-06T02:49:13.296Z,81.83
2023-10-06T02:49:50.581Z,82.05
2023-10-06T02:50:25.416Z,82.10
2023-10-06T02:50:59.070Z,82.39
2023-10-06T02:51:41.920Z,82.47
2023-10-06T02:52:22.509Z,82.65
2023-10-06T02:53:08.747Z,82.84
2023-10-06T02:53:50.074Z,82.97
2023-10-06T02:54:29.367Z,82.76
2023-10-06T02:55:06.052Z,82.36
2023-10-06T02:55:40.332Z,82.43
2023-10-06T02:56:48.625Z,82.82
2023-10-06T02:57:22.205Z,82.62
2023-10-06T02:57:57.570Z,82.54
2023-10-06T02:58:32.303Z,82.43
2023-10-06T02:59:21.881Z,82.11
2023-10-06T03:00:27.653Z,82.06
2023-10-06T03:01:05.303Z,81.69
2023-10-06T03:01:40.549Z,81.72
2023-10-06T03:02:17.657Z,81.70
2023-10-06T03:03:12.602Z,81.66
2023-10-06T03:04:13.465Z,81.64
2023-10-06T03:04:50.784Z,81.75
2023-10-06T03:05:35.296Z,81.71
2023-10-06T03:06:11.469Z,81.70
2023-10-06T03:06:54.977Z,81.61
2023-10-06T03:07:55.037Z,81.64
2023-10-06T03:08:31.591Z,81.36
2023-10-06T03:09:08.860Z,81.07
2023-10-06T03:09:48.571Z,80.32
2023-10-06T03:10:29.230Z,80.15
2023-10-06T03:11:03.264Z,79.92
2023-10-06T03:11:45.153Z,79.98
2023-10-06T03:12:28.140Z,80.28
2023-10-06T03:13:05.117Z,80.47
2023-10-06T03:13:44.907Z,80.70
2023-10-06T03:14:26.104Z,80.98
2023-10-06T03:15:00.305Z,81.14
2023-10-06T03:15:47.690Z,81.10
2023-10-06T03:16:27.115Z,81.10
2023-10-06T03:17:00.928Z,81.10
2023-10-06T03:17:35.764Z,81.21
2023-10-06T03:18:09.970Z,81.34
2023-10-06T03:19:27.094Z,81.71
2023-10-06T03:20:13.148Z,81.85
2023-10-06T03:20:48.859Z,82.14
2023-10-06T03:21:24.297Z,82.23
2023-10-06T03:22:00.523Z,82.36
2023-10-06T03:23:24.654Z,82.57
2023-10-06T03:23:59.896Z,82.71
2023-10-06T03:24:34.488Z,82.63
2023-10-06T03:25:16.074Z,82.56
2023-10-06T03:25:50.945Z,82.72
2023-10-06T03:26:46.821Z,82.86
2023-10-06T03:27:27.248Z,82.80
2023-10-06T03:28:04.221Z,82.99
2023-10-06T03:28:38.968Z,83.01
2023-10-06T03:29:26.398Z,82.93
2023-10-06T03:30:36.002Z,82.85
2023-10-06T03:31:31.365Z,82.92
2023-10-06T03:32:13.101Z,82.83
2023-10-06T03:32:51.180Z,82.73
2023-10-06T03:33:24.816Z,82.69
2023-10-06T03:34:08.309Z,82.75
2023-10-06T03:34:45.065Z,82.75
2023-10-06T03:35:25.142Z,82.94
2023-10-06T03:36:00.675Z,82.77
2023-10-06T03:36:48.020Z,82.71
2023-10-06T03:37:55.563Z,82.97
2023-10-06T03:38:38.004Z,83.19
2023-10-06T03:39:13.817Z,83.56
2023-10-06T03:39:52.323Z,83.83
2023-10-06T03:40:31.641Z,84.04
2023-10-06T03:41:34.092Z,84.06
2023-10-06T03:42:12.868Z,84.00
2023-10-06T03:42:47.422Z,84.06
2023-10-06T03:43:40.221Z,84.17
2023-10-06T03:44:13.838Z,84.00
2023-10-06T03:45:07.708Z,84.24
2023-10-06T03:45:49.365Z,84.27
2023-10-06T03:46:25.775Z,84.15
2023-10-06T03:47:02.318Z,84.30
2023-10-06T03:47:36.946Z,84.22
2023-10-06T03:48:12.752Z,84.24
2023-10-06T03:48:50.799Z,84.02
2023-10-06T03:49:35.127Z,84.02
2023-10-06T03:50:09.813Z,84.06
2023-10-06T03:50:45.626Z,84.11
2023-10-06T03:51:20.561Z,84.20
2023-10-06T03:51:57.445Z,84.37
2023-10-06T03:52:31.920Z,84.36
2023-10-06T03:53:16.466Z,84.55
2023-10-06T03:53:51.126Z,84.47
2023-10-06T03:54:25.402Z,84.44
2023-10-06T03:55:00.000Z,84.47
2023-10-06T03:55:33.640Z,84.80
2023-10-06T03:56:08.095Z,84.77
2023-10-06T03:56:53.437Z,84.87
2023-10-06T03:57:28.735Z,84.84
2023-10-06T03:58:05.012Z,84.84
2023-10-06T03:58:38.864Z,85.30
2023-10-06T03:59:17.301Z,85.11
2023-10-06T03:59:51.214Z,85.12
2023-10-06T04:00:40.381Z,84.85
2023-10-06T04:01:14.863Z,84.55
2023-10-06T04:01:48.442Z,84.60
2023-10-06T04:02:23.334Z,84.51
2023-10-06T04:02:58.505Z,84.60
2023-10-06T04:03:33.985Z,84.48
2023-10-06T04:04:23.746Z,84.79
2023-10-06T04:04:58.910Z,84.88
2023-10-06T04:05:38.834Z,84.83
2023-10-06T04:06:16.836Z,84.80
2023-10-06T04:06:51.709Z,84.61
2023-10-06T04:07:58.251Z,84.70
2023-10-06T04:08:32.529Z,84.63
2023-10-06T04:09:06.921Z,84.85
2023-10-06T04:09:43.089Z,85.22
2023-10-06T04:10:18.157Z,85.14
2023-10-06T04:10:56.428Z,85.28
2023-10-06T04:11:38.163Z,85.37
2023-10-06T04:12:12.890Z,85.52
2023-10-06T04:12:46.401Z,85.90
2023-10-06T04:13:21.943Z,86.07
2023-10-06T04:13:58.660Z,86.10
2023-10-06T04:14:35.280Z,86.87
2023-10-06T04:15:18.222Z,87.30
2023-10-06T04:15:54.052Z,87.70
2023-10-06T04:16:27.709Z,86.88
2023-10-06T04:17:02.938Z,86.57
2023-10-06T04:17:38.008Z,86.47
2023-10-06T04:18:12.300Z,86.41
2023-10-06T04:18:59.608Z,86.37
2023-10-06T04:19:35.800Z,86.32
2023-10-06T04:20:14.441Z,86.39
2023-10-06T04:20:48.407Z,86.40
2023-10-06T04:21:22.098Z,86.42
2023-10-06T04:21:55.731Z,86.41
2023-10-06T04:22:41.877Z,86.52
2023-10-06T04:23:18.476Z,86.52
2023-10-06T04:23:51.968Z,86.43
2023-10-06T04:24:25.564Z,86.47
2023-10-06T04:25:01.162Z,86.35
2023-10-06T04:25:39.703Z,86.33
2023-10-06T04:26:24.896Z,86.42
2023-10-06T04:26:59.293Z,86.22
2023-10-06T04:27:34.424Z,86.14
2023-10-06T04:28:12.970Z,86.18
2023-10-06T04:28:48.738Z,86.09
2023-10-06T04:29:25.174Z,86.12
2023-10-06T04:30:13.198Z,86.23
2023-10-06T04:30:48.538Z,86.10
2023-10-06T04:31:23.305Z,86.14
2023-10-06T04:31:57.570Z,86.30
2023-10-06T04:32:31.212Z,86.31
2023-10-06T04:33:06.169Z,86.31
2023-10-06T04:33:47.418Z,86.32
2023-10-06T04:34:24.268Z,86.42
2023-10-06T04:34:58.890Z,86.63
2023-10-06T04:35:34.138Z,86.33
2023-10-06T04:36:11.446Z,86.23
2023-10-06T04:36:45.190Z,86.24
2023-10-06T04:37:30.962Z,86.13
2023-10-06T04:38:07.545Z,86.17
2023-10-06T04:38:42.057Z,86.18
2023-10-06T04:39:18.092Z,86.34
2023-10-06T04:39:51.560Z,86.21
2023-10-06T04:40:25.284Z,86.19
2023-10-06T04:41:11.909Z,86.34
2023-10-06T04:41:46.042Z,86.18
2023-10-06T04:42:20.282Z,86.26
2023-10-06T04:42:53.652Z,86.20
2023-10-06T04:43:28.535Z,86.14
2023-10-06T04:44:04.226Z,86.29
2023-10-06T04:44:56.438Z,86.26
2023-10-06T04:45:33.449Z,86.11
2023-10-06T04:46:06.940Z,86.17
2023-10-06T04:46:41.476Z,86.22
2023-10-06T04:47:17.471Z,86.18
2023-10-06T04:47:51.314Z,86.16
2023-10-06T04:48:33.396Z,86.24
2023-10-06T04:49:09.187Z,86.16
2023-10-06T04:49:43.258Z,86.18
2023-10-06T04:50:17.578Z,86.07
2023-10-06T04:50:53.388Z,86.09
2023-10-06T04:51:28.630Z,86.27
2023-10-06T04:52:14.996Z,86.23
2023-10-06T04:52:48.577Z,86.05
2023-10-06T04:53:24.073Z,86.03
2023-10-06T04:53:57.520Z,85.97
2023-10-06T04:54:34.443Z,85.97
2023-10-06T04:55:13.377Z,85.97
2023-10-06T04:55:55.408Z,85.89
2023-10-06T04:56:33.918Z,85.79
2023-10-06T04:57:09.922Z,85.76
2023-10-06T04:57:44.334Z,85.79
2023-10-06T04:58:20.409Z,85.74
2023-10-06T04:58:55.413Z,85.70
2023-10-06T04:59:39.686Z,85.64
2023-10-06T05:00:22.755Z,85.68
2023-10-06T05:01:00.997Z,85.56
2023-10-06T05:01:35.730Z,85.53
2023-10-06T05:02:09.715Z,85.57
2023-10-06T05:02:47.930Z,85.46
2023-10-06T05:03:29.237Z,85.52
2023-10-06T05:04:07.320Z,85.27
2023-10-06T05:04:41.574Z,85.21
2023-10-06T05:05:20.638Z,85.26
2023-10-06T05:05:57.178Z,85.24
2023-10-06T05:06:30.769Z,85.25
2023-10-06T05:07:13.739Z,85.25
2023-10-06T05:07:50.400Z,85.10
2023-10-06T05:08:26.232Z,84.99
2023-10-06T05:08:59.894Z,85.00
2023-10-06T05:09:33.538Z,85.02
2023-10-06T05:10:12.832Z,84.98
2023-10-06T05:10:57.448Z,84.95
2023-10-06T05:11:34.214Z,84.88
2023-10-06T05:12:08.662Z,84.91
2023-10-06T05:12:45.071Z,84.91
2023-10-06T05:13:19.493Z,84.87
2023-10-06T05:13:55.058Z,85.11
2023-10-06T05:14:40.726Z,84.88
2023-10-06T05:15:25.250Z,84.87
2023-10-06T05:15:58.999Z,84.80
2023-10-06T05:16:34.822Z,84.82
2023-10-06T05:17:08.553Z,84.80
2023-10-06T05:17:42.909Z,84.76
2023-10-06T05:18:30.944Z,84.78
2023-10-06T05:19:05.364Z,84.64
2023-10-06T05:19:39.136Z,84.64
2023-10-06T05:20:20.919Z,84.73
2023-10-06T05:20:54.823Z,84.55
2023-10-06T05:21:29.751Z,84.63
2023-10-06T05:22:14.229Z,84.47
2023-10-06T05:22:50.372Z,84.29
2023-10-06T05:23:24.433Z,84.44
2023-10-06T05:24:00.979Z,84.30
2023-10-06T05:24:34.695Z,84.33
2023-10-06T05:25:14.002Z,84.30
2023-10-06T05:26:03.838Z,84.34
2023-10-06T05:26:37.872Z,84.36
2023-10-06T05:27:11.700Z,84.32
2023-10-06T05:27:45.916Z,84.34
2023-10-06T05:28:22.530Z,84.27
2023-10-06T05:28:55.841Z,84.26
2023-10-06T05:29:37.530Z,84.19
2023-10-06T05:30:15.195Z,83.95
2023-10-06T05:30:49.300Z,83.87
2023-10-06T05:31:24.256Z,83.28
2023-10-06T05:32:01.281Z,83.24
2023-10-06T05:32:43.898Z,83.28
2023-10-06T05:33:28.784Z,83.52
2023-10-06T05:34:02.315Z,83.63
2023-10-06T05:34:35.703Z,83.64
2023-10-06T05:35:11.794Z,83.71
2023-10-06T05:35:47.139Z,83.72
2023-10-06T05:36:21.565Z,83.63
2023-10-06T05:37:05.278Z,83.68
2023-10-06T05:37:39.702Z,83.75
2023-10-06T05:38:16.145Z,83.83
2023-10-06T05:38:50.994Z,83.85
2023-10-06T05:39:25.788Z,84.02
2023-10-06T05:40:00.153Z,84.01
2023-10-06T05:40:45.807Z,83.84
2023-10-06T05:41:19.496Z,83.98
2023-10-06T05:41:53.278Z,84.09
2023-10-06T05:42:27.718Z,84.24
2023-10-06T05:43:02.285Z,84.27
2023-10-06T05:43:36.506Z,84.42
2023-10-06T05:44:25.745Z,84.63
2023-10-06T05:45:01.103Z,84.69
2023-10-06T05:45:34.369Z,84.91
2023-10-06T05:46:07.861Z,85.25
2023-10-06T05:46:43.377Z,85.21
2023-10-06T05:47:17.089Z,85.33
2023-10-06T05:48:11.131Z,85.29
2023-10-06T05:48:45.115Z,85.54
2023-10-06T05:49:22.528Z,85.50
2023-10-06T05:49:56.087Z,85.60
2023-10-06T05:50:32.846Z,85.63
2023-10-06T05:51:45.250Z,85.75
2023-10-06T05:52:19.344Z,85.73
2023-10-06T05:52:53.601Z,85.69
2023-10-06T05:53:31.756Z,85.75
2023-10-06T05:54:10.880Z,85.84
2023-10-06T05:54:44.536Z,86.10
2023-10-06T05:55:32.923Z,86.19
2023-10-06T05:56:09.225Z,86.28
2023-10-06T05:56:46.605Z,86.03
2023-10-06T05:57:23.183Z,85.66
2023-10-06T05:57:57.470Z,85.39
2023-10-06T05:59:09.595Z,85.73
2023-10-06T05:59:44.714Z,85.69
2023-10-06T06:00:26.630Z,85.73
2023-10-06T06:01:07.741Z,85.69
2023-10-06T06:01:42.926Z,85.66
2023-10-06T06:02:49.830Z,85.70
2023-10-06T06:03:25.295Z,85.98
2023-10-06T06:03:59.445Z,86.15
2023-10-06T06:04:35.922Z,85.90
2023-10-06T06:05:09.844Z,85.83
2023-10-06T06:05:43.663Z,85.72
2023-10-06T06:06:31.338Z,85.59
2023-10-06T06:07:10.097Z,85.40
2023-10-06T06:07:45.697Z,85.69
2023-10-06T06:08:19.889Z,85.67
2023-10-06T06:08:53.568Z,85.80
2023-10-06T06:09:28.823Z,86.03
2023-10-06T06:10:16.817Z,86.17
2023-10-06T06:10:51.243Z,86.17
2023-10-06T06:11:26.156Z,86.51
2023-10-06T06:11:59.886Z,86.65
2023-10-06T06:12:33.662Z,86.79
2023-10-06T06:13:09.414Z,86.49
2023-10-06T06:14:15.291Z,86.02
2023-10-06T06:14:50.944Z,86.90
2023-10-06T06:15:28.044Z,86.46
2023-10-06T06:16:06.946Z,86.10
2023-10-06T06:16:46.011Z,86.48
2023-10-06T06:17:36.323Z,86.08
2023-10-06T06:18:10.676Z,85.83
2023-10-06T06:18:47.667Z,85.95
2023-10-06T06:19:23.566Z,85.92
2023-10-06T06:20:04.732Z,85.37
2023-10-06T06:21:17.985Z,85.74
2023-10-06T06:21:51.890Z,84.91
2023-10-06T06:22:25.898Z,85.17
2023-10-06T06:23:04.055Z,84.87
2023-10-06T06:23:37.772Z,84.83
2023-10-06T06:24:11.396Z,85.26
2023-10-06T06:24:57.596Z,85.10
2023-10-06T06:25:31.765Z,84.88
2023-10-06T06:26:07.815Z,84.91
2023-10-06T06:26:44.905Z,84.66
2023-10-06T06:27:18.149Z,84.62
2023-10-06T06:27:51.946Z,84.72
2023-10-06T06:28:38.021Z,84.63
2023-10-06T06:29:13.132Z,84.65
2023-10-06T06:29:47.766Z,84.81
2023-10-06T06:30:22.676Z,85.38
2023-10-06T06:30:56.524Z,85.26
2023-10-06T06:31:34.564Z,85.19
2023-10-06T06:32:18.480Z,84.93
2023-10-06T06:32:54.382Z,85.11
2023-10-06T06:33:28.115Z,85.17
2023-10-06T06:34:06.377Z,85.16
2023-10-06T06:34:40.267Z,85.69
2023-10-06T06:35:15.232Z,86.06
2023-10-06T06:36:00.383Z,85.88
2023-10-06T06:36:34.143Z,85.55
2023-10-06T06:37:10.875Z,85.45
2023-10-06T06:37:44.488Z,85.61
2023-10-06T06:38:20.264Z,85.56
2023-10-06T06:38:56.965Z,85.49
2023-10-06T06:39:39.422Z,85.66
2023-10-06T06:40:14.813Z,85.69
2023-10-06T06:40:49.577Z,85.59
2023-10-06T06:41:23.466Z,85.51
2023-10-06T06:41:57.240Z,85.46
2023-10-06T06:42:31.495Z,85.52
2023-10-06T06:43:21.488Z,85.34
2023-10-06T06:43:59.814Z,86.23
2023-10-06T06:44:36.201Z,85.73
2023-10-06T06:45:15.024Z,85.69
2023-10-06T06:45:49.875Z,85.56
2023-10-06T06:46:23.769Z,85.11
2023-10-06T06:47:08.484Z,84.95
2023-10-06T06:47:45.959Z,84.68
2023-10-06T06:48:21.619Z,84.54
2023-10-06T06:48:59.490Z,84.42
2023-10-06T06:49:33.874Z,84.35
2023-10-06T06:50:09.019Z,84.45
2023-10-06T06:50:53.503Z,84.36
2023-10-06T06:51:32.787Z,84.53
2023-10-06T06:52:08.631Z,84.48
2023-10-06T06:52:46.005Z,84.47
2023-10-06T06:53:20.167Z,84.24
2023-10-06T06:53:54.726Z,84.37
2023-10-06T06:54:40.752Z,83.16
2023-10-06T06:55:15.937Z,83.13
2023-10-06T06:55:49.742Z,83.09
2023-10-06T06:56:30.966Z,83.90
2023-10-06T06:57:05.028Z,82.92
2023-10-06T06:57:38.579Z,83.18
2023-10-06T06:58:24.686Z,82.63
2023-10-06T06:58:58.346Z,81.77
2023-10-06T06:59:32.561Z,81.75
2023-10-06T07:00:11.355Z,81.22
2023-10-06T07:00:47.788Z,80.12
2023-10-06T07:01:22.658Z,80.55
2023-10-06T07:02:06.125Z,79.97
2023-10-06T07:02:40.015Z,78.87
2023-10-06T07:03:13.724Z,79.20
2023-10-06T07:03:47.305Z,78.32
2023-10-06T07:04:20.970Z,77.85
2023-10-06T07:04:54.967Z,77.16
2023-10-06T07:05:45.069Z,77.50
2023-10-06T07:06:18.803Z,78.88
2023-10-06T07:06:54.365Z,78.73
2023-10-06T07:07:28.065Z,78.08
2023-10-06T07:08:02.707Z,77.52
2023-10-06T07:08:35.959Z,77.96
2023-10-06T07:09:24.285Z,77.90
2023-10-06T07:09:58.381Z,77.79
2023-10-06T07:10:32.604Z,77.56
2023-10-06T07:11:09.661Z,77.50
2023-10-06T07:11:43.963Z,77.07
2023-10-06T07:12:17.533Z,77.06
2023-10-06T07:13:04.011Z,75.91
2023-10-06T07:13:38.977Z,75.84
2023-10-06T07:14:15.810Z,75.82
2023-10-06T07:14:49.591Z,76.13
2023-10-06T07:15:23.399Z,75.66
2023-10-06T07:15:57.104Z,74.75
2023-10-06T07:16:44.744Z,74.66
2023-10-06T07:17:18.541Z,74.92
2023-10-06T07:17:55.501Z,74.11
2023-10-06T07:18:29.645Z,74.16
2023-10-06T07:19:05.197Z,73.92
2023-10-06T07:19:39.563Z,73.41
2023-10-06T07:20:31.704Z,73.74
2023-10-06T07:21:13.576Z,73.69
2023-10-06T07:21:47.388Z,72.52
2023-10-06T07:22:23.746Z,72.03
2023-10-06T07:23:02.046Z,72.06
2023-10-06T07:24:07.053Z,71.16
2023-10-06T07:24:42.732Z,70.40
2023-10-06T07:25:17.897Z,70.31
2023-10-06T07:25:52.431Z,69.93
2023-10-06T07:26:26.412Z,69.84
2023-10-06T07:27:00.377Z,69.95
2023-10-06T07:27:49.372Z,70.43
2023-10-06T07:28:23.162Z,69.80
2023-10-06T07:28:58.506Z,69.07
2023-10-06T07:29:32.519Z,69.30
2023-10-06T07:30:12.472Z,68.70
2023-10-06T07:30:46.771Z,68.10
2023-10-06T07:31:29.101Z,68.05
2023-10-06T07:32:04.635Z,68.71
2023-10-06T07:32:44.890Z,68.49
2023-10-06T07:33:19.179Z,68.59
2023-10-06T07:33:53.848Z,69.07
2023-10-06T07:34:27.707Z,69.20
2023-10-06T07:35:15.301Z,69.06
2023-10-06T07:35:53.213Z,68.54
2023-10-06T07:36:29.454Z,66.40
2023-10-06T07:37:03.639Z,65.71
2023-10-06T07:37:38.150Z,66.26
2023-10-06T07:38:15.763Z,66.72
2023-10-06T07:38:57.293Z,67.09
2023-10-06T07:39:33.244Z,66.93
2023-10-06T07:40:14.648Z,67.06
2023-10-06T07:40:49.311Z,67.14
2023-10-06T07:41:28.744Z,68.15
2023-10-06T07:42:08.905Z,68.94
2023-10-06T07:42:54.110Z,69.14
2023-10-06T07:43:28.873Z,69.51
2023-10-06T07:44:02.590Z,69.54
2023-10-06T07:44:36.247Z,69.39
2023-10-06T07:45:10.924Z,69.75
2023-10-06T07:45:45.334Z,66.56
2023-10-06T07:46:31.161Z,68.55
2023-10-06T07:47:05.611Z,67.87
2023-10-06T07:47:42.020Z,67.89
2023-10-06T07:48:15.769Z,67.75
2023-10-06T07:48:52.391Z,68.30
2023-10-06T07:49:26.834Z,67.65
2023-10-06T07:50:16.106Z,68.07
2023-10-06T07:50:50.694Z,67.77
2023-10-06T07:51:25.582Z,67.89
2023-10-06T07:51:59.418Z,67.50
2023-10-06T07:52:34.385Z,67.48
2023-10-06T07:53:08.011Z,66.51
2023-10-06T07:53:53.082Z,66.33
2023-10-06T07:54:30.199Z,66.49
2023-10-06T07:55:11.379Z,66.45
2023-10-06T07:55:45.438Z,66.19
2023-10-06T07:56:20.464Z,66.11
2023-10-06T07:57:33.953Z,66.57
2023-10-06T07:58:09.821Z,66.31
2023-10-06T07:58:43.529Z,65.87
2023-10-06T07:59:17.735Z,66.11
2023-10-06T07:59:51.966Z,65.70
2023-10-06T08:00:29.437Z,65.98
2023-10-06T08:01:14.660Z,65.78
2023-10-06T08:01:50.671Z,65.10
2023-10-06T08:02:24.867Z,65.48
2023-10-06T08:03:03.318Z,65.17
2023-10-06T08:03:39.762Z,65.37
2023-10-06T08:04:13.897Z,65.52
2023-10-06T08:04:58.314Z,63.57
2023-10-06T08:05:33.304Z,64.48
2023-10-06T08:06:07.713Z,63.05
2023-10-06T08:06:41.790Z,64.64
2023-10-06T08:07:15.889Z,62.95
2023-10-06T08:07:49.587Z,62.45
2023-10-06T08:08:39.319Z,61.56
2023-10-06T08:09:12.824Z,62.09
2023-10-06T08:09:46.335Z,62.31
2023-10-06T08:10:20.483Z,62.27
2023-10-06T08:10:58.614Z,62.54
2023-10-06T08:11:34.111Z,62.79
2023-10-06T08:12:19.182Z,63.05
2023-10-06T08:12:58.093Z,62.10
2023-10-06T08:13:37.922Z,62.29
2023-10-06T08:14:14.922Z,63.18
2023-10-06T08:14:48.681Z,62.87
2023-10-06T08:15:28.925Z,62.28
2023-10-06T08:16:10.198Z,61.81
2023-10-06T08:16:47.227Z,61.67
2023-10-06T08:17:20.858Z,62.02
2023-10-06T08:17:55.371Z,62.47
2023-10-06T08:18:31.235Z,62.21
2023-10-06T08:19:05.291Z,62.38
2023-10-06T08:19:52.630Z,62.43
2023-10-06T08:20:27.070Z,61.51
2023-10-06T08:21:04.804Z,62.27
2023-10-06T08:21:38.570Z,60.24
2023-10-06T08:22:12.179Z,60.37
2023-10-06T08:22:50.684Z,60.67
2023-10-06T08:23:34.026Z,60.65
2023-10-06T08:24:09.024Z,60.45
2023-10-06T08:24:44.701Z,60.04
2023-10-06T08:25:19.985Z,59.97
2023-10-06T08:26:01.405Z,59.10
2023-10-06T08:26:38.473Z,59.82
2023-10-06T08:27:22.880Z,60.50
2023-10-06T08:27:57.227Z,60.43
2023-10-06T08:28:33.406Z,61.02
2023-10-06T08:29:08.118Z,60.38
2023-10-06T08:29:43.284Z,59.90
2023-10-06T08:30:18.566Z,59.70
2023-10-06T08:31:05.386Z,60.87
2023-10-06T08:31:43.959Z,61.03
2023-10-06T08:32:18.673Z,61.70
2023-10-06T08:32:54.968Z,61.79
2023-10-06T08:33:29.671Z,60.47
2023-10-06T08:34:40.989Z,58.80
2023-10-06T08:35:14.997Z,59.25
2023-10-06T08:35:56.728Z,58.57
2023-10-06T08:36:30.809Z,58.89
2023-10-06T08:37:12.410Z,59.14
2023-10-06T08:37:51.566Z,58.72